sensor_id;sensor_type;location;lat;lon;timestamp;P1;durP1;ratioP1;P2;durP2;ratioP2
58242;SDS011;50118;53.232;8.252;2023-06-14T00:00:10;5.80;;;2.42;;
58242;SDS011;50118;53.232;8.252;2023-06-14T00:02:38;3.92;;;2.33;;
58242;SDS011;50118;53.232;8.252;2023-06-14T00:05:04;4.05;;;2.50;;
58242;SDS011;50118;53.232;8.252;2023-06-14T00:07:38;4.47;;;2.33;;
58242;SDS011;50118;53.232;8.252;2023-06-14T00:10:08;4.88;;;2.78;;
58242;SDS011;50118;53.232;8.252;2023-06-14T00:12:37;4.72;;;2.83;;
58242;SDS011;50118;53.232;8.252;2023-06-14T00:15:04;5.95;;;2.47;;
58242;SDS011;50118;53.232;8.252;2023-06-14T00:17:30;5.50;;;2.75;;
58242;SDS011;50118;53.232;8.252;2023-06-14T00:19:56;5.97;;;2.63;;
58242;SDS011;50118;53.232;8.252;2023-06-14T00:22:23;7.05;;;2.65;;
58242;SDS011;50118;53.232;8.252;2023-06-14T00:24:53;4.30;;;2.60;;
58242;SDS011;50118;53.232;8.252;2023-06-14T00:27:19;5.65;;;2.50;;
58242;SDS011;50118;53.232;8.252;2023-06-14T00:29:44;7.38;;;2.80;;
58242;SDS011;50118;53.232;8.252;2023-06-14T00:32:10;4.93;;;2.70;;
58242;SDS011;50118;53.232;8.252;2023-06-14T00:34:35;4.55;;;2.75;;
58242;SDS011;50118;53.232;8.252;2023-06-14T00:37:01;4.88;;;2.53;;
58242;SDS011;50118;53.232;8.252;2023-06-14T00:39:27;5.03;;;2.70;;
58242;SDS011;50118;53.232;8.252;2023-06-14T00:41:52;4.85;;;2.42;;
58242;SDS011;50118;53.232;8.252;2023-06-14T00:44:18;5.70;;;2.67;;
58242;SDS011;50118;53.232;8.252;2023-06-14T00:46:45;6.80;;;2.70;;
58242;SDS011;50118;53.232;8.252;2023-06-14T00:49:11;5.07;;;2.60;;
58242;SDS011;50118;53.232;8.252;2023-06-14T00:51:40;6.00;;;2.58;;
58242;SDS011;50118;53.232;8.252;2023-06-14T00:54:06;4.50;;;2.53;;
58242;SDS011;50118;53.232;8.252;2023-06-14T00:56:31;8.35;;;2.75;;
58242;SDS011;50118;53.232;8.252;2023-06-14T00:58:57;5.03;;;2.65;;
58242;SDS011;50118;53.232;8.252;2023-06-14T01:01:23;5.97;;;2.65;;
58242;SDS011;50118;53.232;8.252;2023-06-14T01:03:49;4.25;;;2.53;;
58242;SDS011;50118;53.232;8.252;2023-06-14T01:06:20;5.40;;;2.75;;
58242;SDS011;50118;53.232;8.252;2023-06-14T01:09:09;6.53;;;3.10;;
58242;SDS011;50118;53.232;8.252;2023-06-14T01:11:47;5.20;;;2.70;;
58242;SDS011;50118;53.232;8.252;2023-06-14T01:14:32;4.30;;;2.60;;
58242;SDS011;50118;53.232;8.252;2023-06-14T01:16:59;6.43;;;2.83;;
58242;SDS011;50118;53.232;8.252;2023-06-14T01:19:25;4.63;;;2.90;;
58242;SDS011;50118;53.232;8.252;2023-06-14T01:21:53;5.05;;;2.70;;
58242;SDS011;50118;53.232;8.252;2023-06-14T01:24:22;4.85;;;2.90;;
58242;SDS011;50118;53.232;8.252;2023-06-14T01:26:57;6.68;;;3.00;;
58242;SDS011;50118;53.232;8.252;2023-06-14T01:29:24;5.63;;;3.00;;
58242;SDS011;50118;53.232;8.252;2023-06-14T01:31:53;5.28;;;3.20;;
58242;SDS011;50118;53.232;8.252;2023-06-14T01:34:19;5.68;;;3.20;;
58242;SDS011;50118;53.232;8.252;2023-06-14T01:36:45;4.55;;;3.00;;
58242;SDS011;50118;53.232;8.252;2023-06-14T01:39:13;5.72;;;3.08;;
58242;SDS011;50118;53.232;8.252;2023-06-14T01:41:39;4.80;;;3.15;;
58242;SDS011;50118;53.232;8.252;2023-06-14T01:44:05;6.15;;;3.38;;
58242;SDS011;50118;53.232;8.252;2023-06-14T01:46:31;7.07;;;3.05;;
58242;SDS011;50118;53.232;8.252;2023-06-14T01:48:57;5.28;;;3.08;;
58242;SDS011;50118;53.232;8.252;2023-06-14T01:51:23;4.95;;;3.10;;
58242;SDS011;50118;53.232;8.252;2023-06-14T01:53:49;8.60;;;3.42;;
58242;SDS011;50118;53.232;8.252;2023-06-14T01:56:15;5.15;;;3.25;;
58242;SDS011;50118;53.232;8.252;2023-06-14T01:58:41;6.75;;;3.17;;
58242;SDS011;50118;53.232;8.252;2023-06-14T02:01:06;6.82;;;3.30;;
58242;SDS011;50118;53.232;8.252;2023-06-14T02:03:32;6.55;;;3.58;;
58242;SDS011;50118;53.232;8.252;2023-06-14T02:05:57;5.93;;;3.28;;
58242;SDS011;50118;53.232;8.252;2023-06-14T02:08:23;8.02;;;3.55;;
58242;SDS011;50118;53.232;8.252;2023-06-14T02:10:48;5.93;;;3.70;;
58242;SDS011;50118;53.232;8.252;2023-06-14T02:13:14;6.78;;;3.47;;
58242;SDS011;50118;53.232;8.252;2023-06-14T02:15:39;7.90;;;3.70;;
58242;SDS011;50118;53.232;8.252;2023-06-14T02:18:05;5.10;;;3.20;;
58242;SDS011;50118;53.232;8.252;2023-06-14T02:20:30;5.80;;;2.97;;
58242;SDS011;50118;53.232;8.252;2023-06-14T02:22:56;6.85;;;3.75;;
58242;SDS011;50118;53.232;8.252;2023-06-14T02:25:22;6.57;;;3.60;;
58242;SDS011;50118;53.232;8.252;2023-06-14T02:27:47;7.65;;;3.60;;
58242;SDS011;50118;53.232;8.252;2023-06-14T02:30:13;6.38;;;3.70;;
58242;SDS011;50118;53.232;8.252;2023-06-14T02:32:38;6.07;;;3.58;;
58242;SDS011;50118;53.232;8.252;2023-06-14T02:35:05;5.50;;;3.60;;
58242;SDS011;50118;53.232;8.252;2023-06-14T02:37:31;6.97;;;3.60;;
58242;SDS011;50118;53.232;8.252;2023-06-14T02:39:57;5.90;;;3.30;;
58242;SDS011;50118;53.232;8.252;2023-06-14T02:42:23;6.38;;;3.70;;
58242;SDS011;50118;53.232;8.252;2023-06-14T02:44:48;5.28;;;3.78;;
58242;SDS011;50118;53.232;8.252;2023-06-14T02:47:16;6.88;;;4.10;;
58242;SDS011;50118;53.232;8.252;2023-06-14T02:49:45;8.70;;;3.83;;
58242;SDS011;50118;53.232;8.252;2023-06-14T02:52:13;6.60;;;4.05;;
58242;SDS011;50118;53.232;8.252;2023-06-14T02:54:39;5.53;;;3.58;;
58242;SDS011;50118;53.232;8.252;2023-06-14T02:57:05;6.55;;;3.80;;
58242;SDS011;50118;53.232;8.252;2023-06-14T02:59:32;8.25;;;3.95;;
58242;SDS011;50118;53.232;8.252;2023-06-14T03:01:57;5.70;;;3.70;;
58242;SDS011;50118;53.232;8.252;2023-06-14T03:04:23;6.90;;;4.07;;
58242;SDS011;50118;53.232;8.252;2023-06-14T03:06:50;8.25;;;3.92;;
58242;SDS011;50118;53.232;8.252;2023-06-14T03:09:16;5.90;;;3.88;;
58242;SDS011;50118;53.232;8.252;2023-06-14T03:11:42;6.75;;;3.85;;
58242;SDS011;50118;53.232;8.252;2023-06-14T03:14:07;8.75;;;4.25;;
58242;SDS011;50118;53.232;8.252;2023-06-14T03:16:33;8.25;;;3.92;;
58242;SDS011;50118;53.232;8.252;2023-06-14T03:18:59;8.00;;;4.18;;
58242;SDS011;50118;53.232;8.252;2023-06-14T03:21:25;7.40;;;4.05;;
58242;SDS011;50118;53.232;8.252;2023-06-14T03:23:51;5.70;;;4.07;;
58242;SDS011;50118;53.232;8.252;2023-06-14T03:26:18;5.90;;;4.20;;
58242;SDS011;50118;53.232;8.252;2023-06-14T03:28:47;7.75;;;4.22;;
58242;SDS011;50118;53.232;8.252;2023-06-14T03:31:13;5.88;;;4.43;;
58242;SDS011;50118;53.232;8.252;2023-06-14T03:33:40;6.30;;;3.95;;
58242;SDS011;50118;53.232;8.252;2023-06-14T03:36:05;6.65;;;3.67;;
58242;SDS011;50118;53.232;8.252;2023-06-14T03:38:34;6.60;;;4.13;;
58242;SDS011;50118;53.232;8.252;2023-06-14T03:41:00;8.10;;;4.28;;
58242;SDS011;50118;53.232;8.252;2023-06-14T03:43:26;5.75;;;3.95;;
58242;SDS011;50118;53.232;8.252;2023-06-14T03:45:52;7.10;;;4.20;;
58242;SDS011;50118;53.232;8.252;2023-06-14T03:48:17;6.47;;;4.53;;
58242;SDS011;50118;53.232;8.252;2023-06-14T03:50:43;8.35;;;4.85;;
58242;SDS011;50118;53.232;8.252;2023-06-14T03:53:09;7.28;;;4.38;;
58242;SDS011;50118;53.232;8.252;2023-06-14T03:55:34;7.55;;;4.22;;
58242;SDS011;50118;53.232;8.252;2023-06-14T03:58:00;6.35;;;4.30;;
58242;SDS011;50118;53.232;8.252;2023-06-14T04:00:25;10.25;;;5.15;;
58242;SDS011;50118;53.232;8.252;2023-06-14T04:02:51;6.47;;;4.40;;
58242;SDS011;50118;53.232;8.252;2023-06-14T04:05:17;8.32;;;4.70;;
58242;SDS011;50118;53.232;8.252;2023-06-14T04:07:44;6.25;;;4.20;;
58242;SDS011;50118;53.232;8.252;2023-06-14T04:10:10;7.97;;;4.50;;
58242;SDS011;50118;53.232;8.252;2023-06-14T04:12:40;5.93;;;4.07;;
58242;SDS011;50118;53.232;8.252;2023-06-14T04:15:06;8.85;;;4.10;;
58242;SDS011;50118;53.232;8.252;2023-06-14T04:17:33;6.18;;;4.05;;
58242;SDS011;50118;53.232;8.252;2023-06-14T04:19:59;6.18;;;4.00;;
58242;SDS011;50118;53.232;8.252;2023-06-14T04:22:25;6.43;;;3.67;;
58242;SDS011;50118;53.232;8.252;2023-06-14T04:24:55;5.03;;;3.30;;
58242;SDS011;50118;53.232;8.252;2023-06-14T04:27:25;7.10;;;3.40;;
58242;SDS011;50118;53.232;8.252;2023-06-14T04:29:53;7.22;;;3.95;;
58242;SDS011;50118;53.232;8.252;2023-06-14T04:32:25;7.22;;;3.58;;
58242;SDS011;50118;53.232;8.252;2023-06-14T04:34:54;7.00;;;3.40;;
58242;SDS011;50118;53.232;8.252;2023-06-14T04:37:21;5.47;;;3.47;;
58242;SDS011;50118;53.232;8.252;2023-06-14T04:39:47;9.32;;;3.35;;
58242;SDS011;50118;53.232;8.252;2023-06-14T04:42:13;6.20;;;3.35;;
58242;SDS011;50118;53.232;8.252;2023-06-14T04:44:40;5.95;;;3.17;;
58242;SDS011;50118;53.232;8.252;2023-06-14T04:47:06;4.95;;;3.30;;
58242;SDS011;50118;53.232;8.252;2023-06-14T04:49:32;6.15;;;3.25;;
58242;SDS011;50118;53.232;8.252;2023-06-14T04:51:59;4.93;;;3.40;;
58242;SDS011;50118;53.232;8.252;2023-06-14T04:54:26;6.10;;;3.00;;
58242;SDS011;50118;53.232;8.252;2023-06-14T04:56:52;5.60;;;3.40;;
58242;SDS011;50118;53.232;8.252;2023-06-14T04:59:21;6.72;;;3.33;;
58242;SDS011;50118;53.232;8.252;2023-06-14T05:01:50;4.93;;;3.15;;
58242;SDS011;50118;53.232;8.252;2023-06-14T05:04:16;7.15;;;3.28;;
58242;SDS011;50118;53.232;8.252;2023-06-14T05:06:43;4.85;;;2.65;;
58242;SDS011;50118;53.232;8.252;2023-06-14T05:09:10;5.93;;;3.20;;
58242;SDS011;50118;53.232;8.252;2023-06-14T05:11:39;5.40;;;3.20;;
58242;SDS011;50118;53.232;8.252;2023-06-14T05:14:04;6.03;;;3.08;;
58242;SDS011;50118;53.232;8.252;2023-06-14T05:16:31;5.60;;;2.95;;
58242;SDS011;50118;53.232;8.252;2023-06-14T05:18:57;5.13;;;3.28;;
58242;SDS011;50118;53.232;8.252;2023-06-14T05:21:23;5.05;;;3.15;;
58242;SDS011;50118;53.232;8.252;2023-06-14T05:23:49;5.38;;;3.30;;
58242;SDS011;50118;53.232;8.252;2023-06-14T05:26:15;5.40;;;3.20;;
58242;SDS011;50118;53.232;8.252;2023-06-14T05:28:41;6.40;;;3.40;;
58242;SDS011;50118;53.232;8.252;2023-06-14T05:31:06;7.85;;;3.40;;
58242;SDS011;50118;53.232;8.252;2023-06-14T05:33:32;5.03;;;3.15;;
58242;SDS011;50118;53.232;8.252;2023-06-14T05:35:57;5.25;;;3.10;;
58242;SDS011;50118;53.232;8.252;2023-06-14T05:38:23;4.90;;;2.83;;
58242;SDS011;50118;53.232;8.252;2023-06-14T05:40:48;6.43;;;3.13;;
58242;SDS011;50118;53.232;8.252;2023-06-14T05:43:13;5.95;;;3.38;;
58242;SDS011;50118;53.232;8.252;2023-06-14T05:45:39;6.32;;;3.35;;
58242;SDS011;50118;53.232;8.252;2023-06-14T05:48:05;5.38;;;3.22;;
58242;SDS011;50118;53.232;8.252;2023-06-14T05:50:31;4.75;;;3.10;;
58242;SDS011;50118;53.232;8.252;2023-06-14T05:52:57;6.15;;;3.45;;
58242;SDS011;50118;53.232;8.252;2023-06-14T05:55:22;7.05;;;3.33;;
58242;SDS011;50118;53.232;8.252;2023-06-14T05:57:47;6.50;;;3.40;;
58242;SDS011;50118;53.232;8.252;2023-06-14T06:00:13;6.65;;;3.30;;
58242;SDS011;50118;53.232;8.252;2023-06-14T06:02:41;5.38;;;3.47;;
58242;SDS011;50118;53.232;8.252;2023-06-14T06:05:08;16.10;;;4.22;;
58242;SDS011;50118;53.232;8.252;2023-06-14T06:07:34;6.45;;;3.40;;
58242;SDS011;50118;53.232;8.252;2023-06-14T06:10:00;8.98;;;3.40;;
58242;SDS011;50118;53.232;8.252;2023-06-14T06:12:25;4.75;;;3.13;;
58242;SDS011;50118;53.232;8.252;2023-06-14T06:14:51;5.90;;;3.58;;
58242;SDS011;50118;53.232;8.252;2023-06-14T06:17:16;5.95;;;3.33;;
58242;SDS011;50118;53.232;8.252;2023-06-14T06:19:41;4.18;;;3.10;;
58242;SDS011;50118;53.232;8.252;2023-06-14T06:22:07;5.80;;;3.03;;
58242;SDS011;50118;53.232;8.252;2023-06-14T06:24:33;6.25;;;3.13;;
58242;SDS011;50118;53.232;8.252;2023-06-14T06:26:59;6.13;;;3.22;;
58242;SDS011;50118;53.232;8.252;2023-06-14T06:29:26;4.65;;;3.10;;
58242;SDS011;50118;53.232;8.252;2023-06-14T06:31:51;4.95;;;2.92;;
58242;SDS011;50118;53.232;8.252;2023-06-14T06:34:17;6.18;;;2.80;;
58242;SDS011;50118;53.232;8.252;2023-06-14T06:36:42;5.25;;;2.80;;
58242;SDS011;50118;53.232;8.252;2023-06-14T06:39:08;7.07;;;3.33;;
58242;SDS011;50118;53.232;8.252;2023-06-14T06:41:37;7.10;;;3.20;;
58242;SDS011;50118;53.232;8.252;2023-06-14T06:44:05;5.25;;;3.00;;
58242;SDS011;50118;53.232;8.252;2023-06-14T06:46:31;7.28;;;3.10;;
58242;SDS011;50118;53.232;8.252;2023-06-14T06:48:57;6.13;;;3.20;;
58242;SDS011;50118;53.232;8.252;2023-06-14T06:51:23;6.68;;;3.15;;
58242;SDS011;50118;53.232;8.252;2023-06-14T06:53:52;5.03;;;2.90;;
58242;SDS011;50118;53.232;8.252;2023-06-14T06:56:18;9.00;;;3.00;;
58242;SDS011;50118;53.232;8.252;2023-06-14T06:58:44;5.00;;;2.70;;
58242;SDS011;50118;53.232;8.252;2023-06-14T07:01:10;5.53;;;2.95;;
58242;SDS011;50118;53.232;8.252;2023-06-14T07:03:36;5.65;;;2.90;;
58242;SDS011;50118;53.232;8.252;2023-06-14T07:06:02;7.53;;;2.78;;
58242;SDS011;50118;53.232;8.252;2023-06-14T07:08:27;6.45;;;2.50;;
58242;SDS011;50118;53.232;8.252;2023-06-14T07:10:53;6.35;;;2.88;;
58242;SDS011;50118;53.232;8.252;2023-06-14T07:13:18;4.38;;;2.20;;
58242;SDS011;50118;53.232;8.252;2023-06-14T07:15:44;3.45;;;2.55;;
58242;SDS011;50118;53.232;8.252;2023-06-14T07:18:09;4.45;;;2.78;;
58242;SDS011;50118;53.232;8.252;2023-06-14T07:20:35;5.20;;;2.63;;
58242;SDS011;50118;53.232;8.252;2023-06-14T07:23:03;4.07;;;2.58;;
58242;SDS011;50118;53.232;8.252;2023-06-14T07:25:28;6.00;;;2.42;;
58242;SDS011;50118;53.232;8.252;2023-06-14T07:27:54;4.95;;;2.70;;
58242;SDS011;50118;53.232;8.252;2023-06-14T07:30:19;5.25;;;2.85;;
58242;SDS011;50118;53.232;8.252;2023-06-14T07:32:45;3.15;;;2.38;;
58242;SDS011;50118;53.232;8.252;2023-06-14T07:35:10;4.82;;;2.50;;
58242;SDS011;50118;53.232;8.252;2023-06-14T07:37:36;7.05;;;2.88;;
58242;SDS011;50118;53.232;8.252;2023-06-14T07:40:01;5.30;;;2.53;;
58242;SDS011;50118;53.232;8.252;2023-06-14T07:42:32;4.32;;;2.30;;
58242;SDS011;50118;53.232;8.252;2023-06-14T07:44:58;6.95;;;2.67;;
58242;SDS011;50118;53.232;8.252;2023-06-14T07:47:24;6.05;;;2.75;;
58242;SDS011;50118;53.232;8.252;2023-06-14T07:49:50;5.18;;;2.67;;
58242;SDS011;50118;53.232;8.252;2023-06-14T07:52:15;5.10;;;2.22;;
58242;SDS011;50118;53.232;8.252;2023-06-14T07:54:41;4.18;;;2.40;;
58242;SDS011;50118;53.232;8.252;2023-06-14T07:57:06;4.18;;;2.25;;
58242;SDS011;50118;53.232;8.252;2023-06-14T07:59:32;5.82;;;2.40;;
58242;SDS011;50118;53.232;8.252;2023-06-14T08:01:58;4.20;;;2.50;;
58242;SDS011;50118;53.232;8.252;2023-06-14T08:04:23;4.65;;;2.38;;
58242;SDS011;50118;53.232;8.252;2023-06-14T08:06:50;3.63;;;2.30;;
58242;SDS011;50118;53.232;8.252;2023-06-14T08:09:15;4.75;;;2.50;;
58242;SDS011;50118;53.232;8.252;2023-06-14T08:11:41;4.07;;;2.10;;
58242;SDS011;50118;53.232;8.252;2023-06-14T08:14:06;4.38;;;2.03;;
58242;SDS011;50118;53.232;8.252;2023-06-14T08:16:32;3.55;;;2.08;;
58242;SDS011;50118;53.232;8.252;2023-06-14T08:19:00;3.22;;;2.20;;
58242;SDS011;50118;53.232;8.252;2023-06-14T08:21:26;3.20;;;2.13;;
58242;SDS011;50118;53.232;8.252;2023-06-14T08:23:54;4.55;;;2.22;;
58242;SDS011;50118;53.232;8.252;2023-06-14T08:26:19;3.53;;;2.13;;
58242;SDS011;50118;53.232;8.252;2023-06-14T08:28:45;4.15;;;2.05;;
58242;SDS011;50118;53.232;8.252;2023-06-14T08:31:11;4.43;;;2.25;;
58242;SDS011;50118;53.232;8.252;2023-06-14T08:33:37;4.47;;;1.83;;
58242;SDS011;50118;53.232;8.252;2023-06-14T08:36:04;4.10;;;2.10;;
58242;SDS011;50118;53.232;8.252;2023-06-14T08:38:30;2.70;;;1.95;;
58242;SDS011;50118;53.232;8.252;2023-06-14T08:40:56;4.25;;;2.10;;
58242;SDS011;50118;53.232;8.252;2023-06-14T08:43:22;3.92;;;2.15;;
58242;SDS011;50118;53.232;8.252;2023-06-14T08:45:48;3.83;;;2.05;;
58242;SDS011;50118;53.232;8.252;2023-06-14T08:48:18;3.95;;;2.00;;
58242;SDS011;50118;53.232;8.252;2023-06-14T08:50:45;3.35;;;2.00;;
58242;SDS011;50118;53.232;8.252;2023-06-14T08:53:13;3.58;;;1.95;;
58242;SDS011;50118;53.232;8.252;2023-06-14T08:55:41;4.88;;;2.10;;
58242;SDS011;50118;53.232;8.252;2023-06-14T08:58:08;2.83;;;1.90;;
58242;SDS011;50118;53.232;8.252;2023-06-14T09:00:34;3.22;;;1.90;;
58242;SDS011;50118;53.232;8.252;2023-06-14T09:03:03;3.25;;;2.08;;
58242;SDS011;50118;53.232;8.252;2023-06-14T09:05:29;4.07;;;1.88;;
58242;SDS011;50118;53.232;8.252;2023-06-14T09:07:54;3.88;;;1.88;;
58242;SDS011;50118;53.232;8.252;2023-06-14T09:10:21;3.47;;;1.77;;
58242;SDS011;50118;53.232;8.252;2023-06-14T09:12:47;4.07;;;1.85;;
58242;SDS011;50118;53.232;8.252;2023-06-14T09:15:15;3.15;;;1.80;;
58242;SDS011;50118;53.232;8.252;2023-06-14T09:17:42;5.10;;;1.90;;
58242;SDS011;50118;53.232;8.252;2023-06-14T09:20:08;6.28;;;1.88;;
58242;SDS011;50118;53.232;8.252;2023-06-14T09:22:35;3.83;;;1.90;;
58242;SDS011;50118;53.232;8.252;2023-06-14T09:25:02;3.85;;;2.20;;
58242;SDS011;50118;53.232;8.252;2023-06-14T09:27:28;3.90;;;1.90;;
58242;SDS011;50118;53.232;8.252;2023-06-14T09:29:54;2.63;;;1.80;;
58242;SDS011;50118;53.232;8.252;2023-06-14T09:32:20;4.20;;;1.88;;
58242;SDS011;50118;53.232;8.252;2023-06-14T09:34:49;4.20;;;1.98;;
58242;SDS011;50118;53.232;8.252;2023-06-14T09:37:31;4.93;;;2.05;;
58242;SDS011;50118;53.232;8.252;2023-06-14T09:39:57;2.97;;;1.98;;
58242;SDS011;50118;53.232;8.252;2023-06-14T09:42:23;4.32;;;1.90;;
58242;SDS011;50118;53.232;8.252;2023-06-14T09:44:54;3.88;;;2.10;;
58242;SDS011;50118;53.232;8.252;2023-06-14T09:47:22;3.13;;;1.90;;
58242;SDS011;50118;53.232;8.252;2023-06-14T09:49:48;3.53;;;1.90;;
58242;SDS011;50118;53.232;8.252;2023-06-14T09:52:15;6.93;;;2.22;;
58242;SDS011;50118;53.232;8.252;2023-06-14T09:54:44;3.05;;;2.20;;
58242;SDS011;50118;53.232;8.252;2023-06-14T09:57:12;3.92;;;2.10;;
58242;SDS011;50118;53.232;8.252;2023-06-14T09:59:45;3.97;;;2.10;;
58242;SDS011;50118;53.232;8.252;2023-06-14T10:02:21;5.65;;;2.45;;
58242;SDS011;50118;53.232;8.252;2023-06-14T10:05:12;5.72;;;2.20;;
58242;SDS011;50118;53.232;8.252;2023-06-14T10:07:58;3.80;;;2.00;;
58242;SDS011;50118;53.232;8.252;2023-06-14T10:10:28;3.42;;;2.08;;
58242;SDS011;50118;53.232;8.252;2023-06-14T10:12:53;3.13;;;2.10;;
58242;SDS011;50118;53.232;8.252;2023-06-14T10:16:04;4.97;;;2.30;;
58242;SDS011;50118;53.232;8.252;2023-06-14T10:23:42;3.05;;;2.10;;
58242;SDS011;50118;53.232;8.252;2023-06-14T10:26:13;3.80;;;2.30;;
58242;SDS011;50118;53.232;8.252;2023-06-14T10:28:50;4.18;;;2.10;;
58242;SDS011;50118;53.232;8.252;2023-06-14T10:31:21;3.42;;;2.05;;
58242;SDS011;50118;53.232;8.252;2023-06-14T10:33:52;3.20;;;2.13;;
58242;SDS011;50118;53.232;8.252;2023-06-14T10:38:46;3.42;;;2.03;;
58242;SDS011;50118;53.232;8.252;2023-06-14T10:41:22;4.50;;;2.53;;
58242;SDS011;50118;53.232;8.252;2023-06-14T10:43:48;3.65;;;1.95;;
58242;SDS011;50118;53.232;8.252;2023-06-14T10:48:41;4.05;;;2.38;;
58242;SDS011;50118;53.232;8.252;2023-06-14T10:51:17;5.18;;;2.78;;
58242;SDS011;50118;53.232;8.252;2023-06-14T10:53:49;4.88;;;2.80;;
58242;SDS011;50118;53.232;8.252;2023-06-14T10:56:28;4.72;;;2.00;;
58242;SDS011;50118;53.232;8.252;2023-06-14T11:01:41;5.68;;;2.40;;
58242;SDS011;50118;53.232;8.252;2023-06-14T11:04:16;4.78;;;2.40;;
58242;SDS011;50118;53.232;8.252;2023-06-14T11:06:46;4.20;;;2.30;;
58242;SDS011;50118;53.232;8.252;2023-06-14T11:11:44;4.35;;;2.20;;
58242;SDS011;50118;53.232;8.252;2023-06-14T11:14:11;4.80;;;2.33;;
58242;SDS011;50118;53.232;8.252;2023-06-14T11:16:37;8.05;;;2.60;;
58242;SDS011;50118;53.232;8.252;2023-06-14T11:19:02;4.45;;;2.55;;
58242;SDS011;50118;53.232;8.252;2023-06-14T11:21:28;5.63;;;2.50;;
58242;SDS011;50118;53.232;8.252;2023-06-14T11:23:56;5.90;;;2.20;;
58242;SDS011;50118;53.232;8.252;2023-06-14T11:26:28;3.95;;;2.50;;
58242;SDS011;50118;53.232;8.252;2023-06-14T11:28:58;4.57;;;2.50;;
58242;SDS011;50118;53.232;8.252;2023-06-14T11:31:25;3.78;;;2.35;;
58242;SDS011;50118;53.232;8.252;2023-06-14T11:33:55;6.38;;;2.40;;
58242;SDS011;50118;53.232;8.252;2023-06-14T11:36:22;4.65;;;2.40;;
58242;SDS011;50118;53.232;8.252;2023-06-14T11:38:48;4.38;;;2.33;;
58242;SDS011;50118;53.232;8.252;2023-06-14T11:41:13;3.72;;;2.40;;
58242;SDS011;50118;53.232;8.252;2023-06-14T11:43:39;3.88;;;2.50;;
58242;SDS011;50118;53.232;8.252;2023-06-14T11:46:11;6.35;;;2.30;;
58242;SDS011;50118;53.232;8.252;2023-06-14T11:48:40;4.32;;;2.53;;
58242;SDS011;50118;53.232;8.252;2023-06-14T11:51:06;4.47;;;2.50;;
58242;SDS011;50118;53.232;8.252;2023-06-14T11:53:32;3.33;;;2.40;;
58242;SDS011;50118;53.232;8.252;2023-06-14T11:55:58;5.47;;;2.80;;
58242;SDS011;50118;53.232;8.252;2023-06-14T11:58:25;5.18;;;2.60;;
58242;SDS011;50118;53.232;8.252;2023-06-14T12:00:51;3.97;;;2.60;;
58242;SDS011;50118;53.232;8.252;2023-06-14T12:03:22;6.38;;;2.67;;
58242;SDS011;50118;53.232;8.252;2023-06-14T12:05:48;5.38;;;2.47;;
58242;SDS011;50118;53.232;8.252;2023-06-14T12:08:13;4.63;;;2.60;;
58242;SDS011;50118;53.232;8.252;2023-06-14T12:10:42;12.50;;;3.80;;
58242;SDS011;50118;53.232;8.252;2023-06-14T12:13:08;5.80;;;2.40;;
58242;SDS011;50118;53.232;8.252;2023-06-14T12:15:34;4.35;;;2.80;;
58242;SDS011;50118;53.232;8.252;2023-06-14T12:18:00;4.53;;;2.40;;
58242;SDS011;50118;53.232;8.252;2023-06-14T12:20:29;6.22;;;2.85;;
58242;SDS011;50118;53.232;8.252;2023-06-14T12:22:56;4.00;;;2.50;;
58242;SDS011;50118;53.232;8.252;2023-06-14T12:25:27;7.18;;;2.65;;
58242;SDS011;50118;53.232;8.252;2023-06-14T12:27:58;4.30;;;2.63;;
58242;SDS011;50118;53.232;8.252;2023-06-14T12:30:24;4.18;;;2.30;;
58242;SDS011;50118;53.232;8.252;2023-06-14T12:32:49;3.80;;;2.20;;
58242;SDS011;50118;53.232;8.252;2023-06-14T12:35:16;5.78;;;2.75;;
58242;SDS011;50118;53.232;8.252;2023-06-14T12:37:43;4.47;;;2.42;;
58242;SDS011;50118;53.232;8.252;2023-06-14T12:40:09;4.82;;;2.63;;
58242;SDS011;50118;53.232;8.252;2023-06-14T12:42:36;6.07;;;2.53;;
58242;SDS011;50118;53.232;8.252;2023-06-14T12:45:02;5.63;;;2.50;;
58242;SDS011;50118;53.232;8.252;2023-06-14T12:47:27;8.05;;;2.60;;
58242;SDS011;50118;53.232;8.252;2023-06-14T12:49:53;4.57;;;2.58;;
58242;SDS011;50118;53.232;8.252;2023-06-14T12:52:18;4.03;;;2.50;;
58242;SDS011;50118;53.232;8.252;2023-06-14T12:54:44;5.95;;;2.75;;
58242;SDS011;50118;53.232;8.252;2023-06-14T12:57:09;4.32;;;2.45;;
58242;SDS011;50118;53.232;8.252;2023-06-14T12:59:35;4.38;;;2.40;;
58242;SDS011;50118;53.232;8.252;2023-06-14T13:04:42;5.22;;;2.72;;
58242;SDS011;50118;53.232;8.252;2023-06-14T13:07:08;4.63;;;2.60;;
58242;SDS011;50118;53.232;8.252;2023-06-14T13:09:33;3.20;;;2.38;;
58242;SDS011;50118;53.232;8.252;2023-06-14T13:11:59;6.50;;;2.80;;
58242;SDS011;50118;53.232;8.252;2023-06-14T13:14:25;4.22;;;2.80;;
58242;SDS011;50118;53.232;8.252;2023-06-14T13:16:51;5.38;;;2.67;;
58242;SDS011;50118;53.232;8.252;2023-06-14T13:19:16;5.03;;;2.50;;
58242;SDS011;50118;53.232;8.252;2023-06-14T13:21:41;5.75;;;2.70;;
58242;SDS011;50118;53.232;8.252;2023-06-14T13:24:07;6.68;;;2.97;;
58242;SDS011;50118;53.232;8.252;2023-06-14T13:26:33;5.03;;;2.70;;
58242;SDS011;50118;53.232;8.252;2023-06-14T13:28:59;4.70;;;2.67;;
58242;SDS011;50118;53.232;8.252;2023-06-14T13:31:24;4.38;;;2.42;;
58242;SDS011;50118;53.232;8.252;2023-06-14T13:33:50;3.80;;;2.50;;
58242;SDS011;50118;53.232;8.252;2023-06-14T13:36:15;6.78;;;2.90;;
58242;SDS011;50118;53.232;8.252;2023-06-14T13:38:41;3.03;;;2.42;;
58242;SDS011;50118;53.232;8.252;2023-06-14T13:41:06;5.50;;;2.47;;
58242;SDS011;50118;53.232;8.252;2023-06-14T13:43:32;4.65;;;2.25;;
58242;SDS011;50118;53.232;8.252;2023-06-14T13:45:57;8.68;;;2.80;;
58242;SDS011;50118;53.232;8.252;2023-06-14T13:48:22;15.27;;;3.60;;
58242;SDS011;50118;53.232;8.252;2023-06-14T13:50:48;4.60;;;2.45;;
58242;SDS011;50118;53.232;8.252;2023-06-14T13:53:14;20.05;;;3.75;;
58242;SDS011;50118;53.232;8.252;2023-06-14T13:55:39;5.18;;;2.70;;
58242;SDS011;50118;53.232;8.252;2023-06-14T13:58:05;6.57;;;2.88;;
58242;SDS011;50118;53.232;8.252;2023-06-14T14:00:30;7.28;;;2.80;;
58242;SDS011;50118;53.232;8.252;2023-06-14T14:02:56;5.15;;;2.72;;
58242;SDS011;50118;53.232;8.252;2023-06-14T14:05:22;6.22;;;2.80;;
58242;SDS011;50118;53.232;8.252;2023-06-14T14:07:53;7.93;;;2.80;;
58242;SDS011;50118;53.232;8.252;2023-06-14T14:10:19;32.95;;;4.10;;
58242;SDS011;50118;53.232;8.252;2023-06-14T14:12:45;5.60;;;2.60;;
58242;SDS011;50118;53.232;8.252;2023-06-14T14:15:11;7.65;;;2.67;;
58242;SDS011;50118;53.232;8.252;2023-06-14T14:17:38;5.00;;;2.72;;
58242;SDS011;50118;53.232;8.252;2023-06-14T14:20:03;4.38;;;2.60;;
58242;SDS011;50118;53.232;8.252;2023-06-14T14:22:29;3.95;;;2.63;;
58242;SDS011;50118;53.232;8.252;2023-06-14T14:24:54;6.07;;;2.83;;
58242;SDS011;50118;53.232;8.252;2023-06-14T14:27:20;5.82;;;2.78;;
58242;SDS011;50118;53.232;8.252;2023-06-14T14:29:46;5.50;;;2.58;;
58242;SDS011;50118;53.232;8.252;2023-06-14T14:32:11;55.35;;;5.63;;
58242;SDS011;50118;53.232;8.252;2023-06-14T14:34:39;3.72;;;2.70;;
58242;SDS011;50118;53.232;8.252;2023-06-14T14:37:05;6.50;;;2.55;;
58242;SDS011;50118;53.232;8.252;2023-06-14T14:39:30;3.58;;;2.42;;
58242;SDS011;50118;53.232;8.252;2023-06-14T14:41:56;3.92;;;2.60;;
58242;SDS011;50118;53.232;8.252;2023-06-14T14:44:21;5.60;;;2.70;;
58242;SDS011;50118;53.232;8.252;2023-06-14T14:46:47;3.67;;;2.60;;
58242;SDS011;50118;53.232;8.252;2023-06-14T14:49:12;5.45;;;2.70;;
58242;SDS011;50118;53.232;8.252;2023-06-14T14:51:37;4.68;;;2.67;;
58242;SDS011;50118;53.232;8.252;2023-06-14T14:54:04;4.00;;;2.60;;
58242;SDS011;50118;53.232;8.252;2023-06-14T14:56:30;4.88;;;2.80;;
58242;SDS011;50118;53.232;8.252;2023-06-14T14:58:56;4.47;;;2.55;;
58242;SDS011;50118;53.232;8.252;2023-06-14T15:01:21;5.55;;;2.75;;
58242;SDS011;50118;53.232;8.252;2023-06-14T15:03:47;4.75;;;2.80;;